sensor_id;sensor_type;location;lat;lon;timestamp;P1;durP1;ratioP1;P2;durP2;ratioP2
37069;SDS011;22984;48.862;9.320;2022-10-13T00:02:14;42.53;;;25.13;;
37069;SDS011;22984;48.862;9.320;2022-10-13T00:04:40;48.88;;;26.45;;
37069;SDS011;22984;48.862;9.320;2022-10-13T00:07:06;53.72;;;27.95;;
37069;SDS011;22984;48.862;9.320;2022-10-13T00:09:32;49.72;;;25.38;;
37069;SDS011;22984;48.862;9.320;2022-10-13T00:11:58;51.20;;;28.15;;
37069;SDS011;22984;48.862;9.320;2022-10-13T00:14:24;46.27;;;27.83;;
37069;SDS011;22984;48.862;9.320;2022-10-13T00:16:50;51.88;;;26.60;;
37069;SDS011;22984;48.862;9.320;2022-10-13T00:19:16;38.58;;;24.10;;
37069;SDS011;22984;48.862;9.320;2022-10-13T00:21:42;38.65;;;22.90;;
37069;SDS011;22984;48.862;9.320;2022-10-13T00:24:11;41.13;;;23.45;;
37069;SDS011;22984;48.862;9.320;2022-10-13T00:26:37;39.80;;;23.55;;
37069;SDS011;22984;48.862;9.320;2022-10-13T00:29:03;37.28;;;23.15;;
37069;SDS011;22984;48.862;9.320;2022-10-13T00:31:30;37.10;;;22.95;;
37069;SDS011;22984;48.862;9.320;2022-10-13T00:33:57;42.20;;;24.02;;
37069;SDS011;22984;48.862;9.320;2022-10-13T00:36:24;39.30;;;24.75;;
37069;SDS011;22984;48.862;9.320;2022-10-13T00:38:50;45.58;;;24.90;;
37069;SDS011;22984;48.862;9.320;2022-10-13T00:41:16;41.33;;;24.85;;
37069;SDS011;22984;48.862;9.320;2022-10-13T00:46:17;39.58;;;24.50;;
37069;SDS011;22984;48.862;9.320;2022-10-13T00:48:44;41.22;;;22.92;;
37069;SDS011;22984;48.862;9.320;2022-10-13T00:51:11;43.75;;;24.58;;
37069;SDS011;22984;48.862;9.320;2022-10-13T00:53:38;47.22;;;25.13;;
37069;SDS011;22984;48.862;9.320;2022-10-13T00:56:04;38.28;;;23.17;;
37069;SDS011;22984;48.862;9.320;2022-10-13T00:58:31;39.22;;;21.20;;
37069;SDS011;22984;48.862;9.320;2022-10-13T01:00:59;34.72;;;20.95;;
37069;SDS011;22984;48.862;9.320;2022-10-13T01:03:25;42.28;;;22.10;;
37069;SDS011;22984;48.862;9.320;2022-10-13T01:05:52;35.03;;;22.02;;
37069;SDS011;22984;48.862;9.320;2022-10-13T01:08:20;40.10;;;23.13;;
37069;SDS011;22984;48.862;9.320;2022-10-13T01:11:03;36.80;;;21.92;;
37069;SDS011;22984;48.862;9.320;2022-10-13T01:13:40;46.85;;;22.15;;
37069;SDS011;22984;48.862;9.320;2022-10-13T01:18:45;38.15;;;20.83;;
37069;SDS011;22984;48.862;9.320;2022-10-13T01:24:02;34.40;;;21.07;;
37069;SDS011;22984;48.862;9.320;2022-10-13T01:34:17;35.58;;;21.23;;
37069;SDS011;22984;48.862;9.320;2022-10-13T01:37:00;33.00;;;21.23;;
37069;SDS011;22984;48.862;9.320;2022-10-13T01:39:39;33.25;;;21.60;;
37069;SDS011;22984;48.862;9.320;2022-10-13T01:42:14;29.30;;;20.30;;
37069;SDS011;22984;48.862;9.320;2022-10-13T01:44:49;31.60;;;19.83;;
37069;SDS011;22984;48.862;9.320;2022-10-13T01:47:16;33.03;;;18.05;;
37069;SDS011;22984;48.862;9.320;2022-10-13T01:49:43;30.23;;;18.73;;
37069;SDS011;22984;48.862;9.320;2022-10-13T01:52:11;25.92;;;19.80;;
37069;SDS011;22984;48.862;9.320;2022-10-13T01:54:38;29.73;;;19.90;;
37069;SDS011;22984;48.862;9.320;2022-10-13T01:57:24;32.95;;;19.13;;
37069;SDS011;22984;48.862;9.320;2022-10-13T01:59:50;38.90;;;20.10;;
37069;SDS011;22984;48.862;9.320;2022-10-13T02:02:25;36.03;;;21.13;;
37069;SDS011;22984;48.862;9.320;2022-10-13T02:04:55;36.05;;;21.15;;
37069;SDS011;22984;48.862;9.320;2022-10-13T02:12:38;37.40;;;23.15;;
37069;SDS011;22984;48.862;9.320;2022-10-13T02:15:07;42.83;;;25.52;;
37069;SDS011;22984;48.862;9.320;2022-10-13T02:17:36;43.47;;;25.35;;
37069;SDS011;22984;48.862;9.320;2022-10-13T02:20:03;39.15;;;23.27;;
37069;SDS011;22984;48.862;9.320;2022-10-13T02:22:31;43.17;;;24.13;;
37069;SDS011;22984;48.862;9.320;2022-10-13T02:24:58;43.53;;;24.00;;
37069;SDS011;22984;48.862;9.320;2022-10-13T02:27:24;42.13;;;24.47;;
37069;SDS011;22984;48.862;9.320;2022-10-13T02:29:52;45.83;;;25.85;;
37069;SDS011;22984;48.862;9.320;2022-10-13T02:32:19;43.72;;;25.80;;
37069;SDS011;22984;48.862;9.320;2022-10-13T02:34:45;41.77;;;24.87;;
37069;SDS011;22984;48.862;9.320;2022-10-13T02:37:11;42.42;;;24.63;;
37069;SDS011;22984;48.862;9.320;2022-10-13T02:39:37;44.17;;;24.80;;
37069;SDS011;22984;48.862;9.320;2022-10-13T02:42:04;44.38;;;24.23;;
37069;SDS011;22984;48.862;9.320;2022-10-13T02:44:30;40.58;;;23.67;;
37069;SDS011;22984;48.862;9.320;2022-10-13T02:46:56;39.80;;;23.35;;
37069;SDS011;22984;48.862;9.320;2022-10-13T02:49:22;40.17;;;23.55;;
37069;SDS011;22984;48.862;9.320;2022-10-13T02:51:48;40.97;;;23.17;;
37069;SDS011;22984;48.862;9.320;2022-10-13T02:54:14;44.13;;;23.03;;
37069;SDS011;22984;48.862;9.320;2022-10-13T02:56:40;41.90;;;23.92;;
37069;SDS011;22984;48.862;9.320;2022-10-13T02:59:06;48.40;;;23.65;;
37069;SDS011;22984;48.862;9.320;2022-10-13T03:01:32;41.03;;;23.65;;
37069;SDS011;22984;48.862;9.320;2022-10-13T03:03:59;51.87;;;24.07;;
37069;SDS011;22984;48.862;9.320;2022-10-13T03:06:25;42.60;;;23.58;;
37069;SDS011;22984;48.862;9.320;2022-10-13T03:08:52;42.58;;;24.50;;
37069;SDS011;22984;48.862;9.320;2022-10-13T03:11:18;42.88;;;23.02;;
37069;SDS011;22984;48.862;9.320;2022-10-13T03:13:44;45.38;;;24.55;;
37069;SDS011;22984;48.862;9.320;2022-10-13T03:16:10;37.90;;;22.92;;
37069;SDS011;22984;48.862;9.320;2022-10-13T03:18:36;42.75;;;23.52;;
37069;SDS011;22984;48.862;9.320;2022-10-13T03:21:03;44.50;;;24.13;;
37069;SDS011;22984;48.862;9.320;2022-10-13T03:23:30;41.30;;;23.37;;
37069;SDS011;22984;48.862;9.320;2022-10-13T03:25:57;39.05;;;23.23;;
37069;SDS011;22984;48.862;9.320;2022-10-13T03:28:23;43.90;;;23.75;;
37069;SDS011;22984;48.862;9.320;2022-10-13T03:30:49;43.72;;;23.15;;
37069;SDS011;22984;48.862;9.320;2022-10-13T03:33:15;42.60;;;23.23;;
37069;SDS011;22984;48.862;9.320;2022-10-13T03:35:41;40.85;;;21.77;;
37069;SDS011;22984;48.862;9.320;2022-10-13T03:38:07;40.45;;;22.40;;
37069;SDS011;22984;48.862;9.320;2022-10-13T03:40:34;40.45;;;21.90;;
37069;SDS011;22984;48.862;9.320;2022-10-13T03:43:00;36.97;;;22.48;;
37069;SDS011;22984;48.862;9.320;2022-10-13T03:45:26;36.72;;;22.02;;
37069;SDS011;22984;48.862;9.320;2022-10-13T03:47:52;33.63;;;20.80;;
37069;SDS011;22984;48.862;9.320;2022-10-13T03:50:18;38.55;;;22.10;;
37069;SDS011;22984;48.862;9.320;2022-10-13T03:52:44;37.85;;;21.92;;
37069;SDS011;22984;48.862;9.320;2022-10-13T03:55:10;39.65;;;21.38;;
37069;SDS011;22984;48.862;9.320;2022-10-13T03:57:36;36.72;;;21.33;;
37069;SDS011;22984;48.862;9.320;2022-10-13T04:00:02;38.17;;;22.40;;
37069;SDS011;22984;48.862;9.320;2022-10-13T04:02:32;39.43;;;21.57;;
37069;SDS011;22984;48.862;9.320;2022-10-13T04:04:58;42.58;;;22.15;;
37069;SDS011;22984;48.862;9.320;2022-10-13T04:07:24;39.97;;;20.65;;
37069;SDS011;22984;48.862;9.320;2022-10-13T04:09:50;36.40;;;21.10;;
37069;SDS011;22984;48.862;9.320;2022-10-13T04:12:16;47.08;;;21.98;;
37069;SDS011;22984;48.862;9.320;2022-10-13T04:14:43;40.90;;;21.85;;
37069;SDS011;22984;48.862;9.320;2022-10-13T04:17:09;30.90;;;17.20;;
37069;SDS011;22984;48.862;9.320;2022-10-13T04:19:35;37.85;;;18.45;;
37069;SDS011;22984;48.862;9.320;2022-10-13T04:22:01;35.55;;;19.08;;
37069;SDS011;22984;48.862;9.320;2022-10-13T04:24:27;34.15;;;18.40;;
37069;SDS011;22984;48.862;9.320;2022-10-13T04:26:53;29.58;;;17.05;;
37069;SDS011;22984;48.862;9.320;2022-10-13T04:29:19;38.67;;;19.17;;
37069;SDS011;22984;48.862;9.320;2022-10-13T04:31:45;38.30;;;18.63;;
37069;SDS011;22984;48.862;9.320;2022-10-13T04:34:11;27.27;;;19.30;;
37069;SDS011;22984;48.862;9.320;2022-10-13T04:36:37;31.75;;;16.85;;
37069;SDS011;22984;48.862;9.320;2022-10-13T04:39:03;31.30;;;16.92;;
37069;SDS011;22984;48.862;9.320;2022-10-13T04:41:29;30.80;;;16.15;;
37069;SDS011;22984;48.862;9.320;2022-10-13T04:43:55;30.60;;;16.75;;
37069;SDS011;22984;48.862;9.320;2022-10-13T04:46:24;27.85;;;16.65;;
37069;SDS011;22984;48.862;9.320;2022-10-13T04:48:50;29.20;;;17.52;;
37069;SDS011;22984;48.862;9.320;2022-10-13T04:51:17;31.77;;;16.50;;
37069;SDS011;22984;48.862;9.320;2022-10-13T04:53:44;24.73;;;15.95;;
37069;SDS011;22984;48.862;9.320;2022-10-13T04:56:12;26.70;;;16.52;;
37069;SDS011;22984;48.862;9.320;2022-10-13T04:58:39;31.13;;;15.83;;
37069;SDS011;22984;48.862;9.320;2022-10-13T05:01:06;24.50;;;17.55;;
37069;SDS011;22984;48.862;9.320;2022-10-13T05:03:32;28.27;;;17.13;;
37069;SDS011;22984;48.862;9.320;2022-10-13T05:05:59;28.50;;;17.85;;
37069;SDS011;22984;48.862;9.320;2022-10-13T05:08:25;29.13;;;16.65;;
37069;SDS011;22984;48.862;9.320;2022-10-13T05:10:52;33.63;;;17.90;;
37069;SDS011;22984;48.862;9.320;2022-10-13T05:13:18;30.65;;;17.90;;
37069;SDS011;22984;48.862;9.320;2022-10-13T05:15:44;40.40;;;19.50;;
37069;SDS011;22984;48.862;9.320;2022-10-13T05:18:10;30.20;;;18.13;;
37069;SDS011;22984;48.862;9.320;2022-10-13T05:20:37;32.65;;;18.70;;
37069;SDS011;22984;48.862;9.320;2022-10-13T05:23:03;30.50;;;18.23;;
37069;SDS011;22984;48.862;9.320;2022-10-13T05:25:29;29.17;;;18.08;;
37069;SDS011;22984;48.862;9.320;2022-10-13T05:27:55;36.70;;;20.45;;
37069;SDS011;22984;48.862;9.320;2022-10-13T05:30:21;28.45;;;18.50;;
37069;SDS011;22984;48.862;9.320;2022-10-13T05:32:47;35.40;;;18.90;;
37069;SDS011;22984;48.862;9.320;2022-10-13T05:35:13;33.97;;;19.63;;
37069;SDS011;22984;48.862;9.320;2022-10-13T05:37:39;30.90;;;19.45;;
37069;SDS011;22984;48.862;9.320;2022-10-13T05:40:06;31.48;;;19.90;;
37069;SDS011;22984;48.862;9.320;2022-10-13T05:42:32;27.83;;;18.08;;
37069;SDS011;22984;48.862;9.320;2022-10-13T05:45:00;28.00;;;18.23;;
37069;SDS011;22984;48.862;9.320;2022-10-13T05:47:26;26.83;;;18.83;;
37069;SDS011;22984;48.862;9.320;2022-10-13T05:49:55;28.60;;;19.02;;
37069;SDS011;22984;48.862;9.320;2022-10-13T05:52:21;29.03;;;17.40;;
37069;SDS011;22984;48.862;9.320;2022-10-13T05:54:50;26.73;;;16.77;;
37069;SDS011;22984;48.862;9.320;2022-10-13T05:57:21;25.02;;;17.10;;
37069;SDS011;22984;48.862;9.320;2022-10-13T05:59:49;32.53;;;16.23;;
37069;SDS011;22984;48.862;9.320;2022-10-13T06:02:15;24.85;;;15.80;;
37069;SDS011;22984;48.862;9.320;2022-10-13T06:04:44;29.83;;;16.63;;
37069;SDS011;22984;48.862;9.320;2022-10-13T06:07:11;25.45;;;15.55;;
37069;SDS011;22984;48.862;9.320;2022-10-13T06:09:38;24.25;;;15.65;;
37069;SDS011;22984;48.862;9.320;2022-10-13T06:12:05;22.40;;;14.85;;
37069;SDS011;22984;48.862;9.320;2022-10-13T06:14:31;24.85;;;15.77;;
37069;SDS011;22984;48.862;9.320;2022-10-13T06:16:57;28.73;;;15.07;;
37069;SDS011;22984;48.862;9.320;2022-10-13T06:19:23;22.03;;;14.17;;
37069;SDS011;22984;48.862;9.320;2022-10-13T06:21:49;25.60;;;14.60;;
37069;SDS011;22984;48.862;9.320;2022-10-13T06:24:15;23.20;;;13.80;;
37069;SDS011;22984;48.862;9.320;2022-10-13T06:26:41;26.20;;;15.30;;
37069;SDS011;22984;48.862;9.320;2022-10-13T06:29:07;27.02;;;13.80;;
37069;SDS011;22984;48.862;9.320;2022-10-13T06:31:33;24.00;;;13.43;;
37069;SDS011;22984;48.862;9.320;2022-10-13T06:33:59;26.88;;;14.55;;
37069;SDS011;22984;48.862;9.320;2022-10-13T06:36:25;20.45;;;14.68;;
37069;SDS011;22984;48.862;9.320;2022-10-13T06:38:51;23.50;;;13.80;;
37069;SDS011;22984;48.862;9.320;2022-10-13T06:41:18;27.27;;;14.35;;
37069;SDS011;22984;48.862;9.320;2022-10-13T06:43:44;24.40;;;14.57;;
37069;SDS011;22984;48.862;9.320;2022-10-13T06:46:10;27.67;;;15.25;;
37069;SDS011;22984;48.862;9.320;2022-10-13T06:48:36;23.73;;;14.38;;
37069;SDS011;22984;48.862;9.320;2022-10-13T06:51:09;22.98;;;15.25;;
37069;SDS011;22984;48.862;9.320;2022-10-13T06:53:35;26.80;;;14.95;;
37069;SDS011;22984;48.862;9.320;2022-10-13T06:56:02;22.98;;;13.73;;
37069;SDS011;22984;48.862;9.320;2022-10-13T06:58:28;21.92;;;13.35;;
37069;SDS011;22984;48.862;9.320;2022-10-13T07:00:54;22.00;;;14.40;;
37069;SDS011;22984;48.862;9.320;2022-10-13T07:03:21;23.90;;;14.20;;
37069;SDS011;22984;48.862;9.320;2022-10-13T07:05:47;20.35;;;13.80;;
37069;SDS011;22984;48.862;9.320;2022-10-13T07:08:13;22.70;;;13.40;;
37069;SDS011;22984;48.862;9.320;2022-10-13T07:10:40;23.75;;;13.43;;
37069;SDS011;22984;48.862;9.320;2022-10-13T07:13:06;27.97;;;14.20;;
37069;SDS011;22984;48.862;9.320;2022-10-13T07:15:35;29.70;;;13.60;;
37069;SDS011;22984;48.862;9.320;2022-10-13T07:18:01;22.27;;;13.15;;
37069;SDS011;22984;48.862;9.320;2022-10-13T07:20:27;24.50;;;13.43;;
37069;SDS011;22984;48.862;9.320;2022-10-13T07:22:53;21.45;;;12.32;;
37069;SDS011;22984;48.862;9.320;2022-10-13T07:25:19;16.45;;;12.40;;
37069;SDS011;22984;48.862;9.320;2022-10-13T07:27:45;22.50;;;12.73;;
37069;SDS011;22984;48.862;9.320;2022-10-13T07:30:11;23.05;;;13.27;;
37069;SDS011;22984;48.862;9.320;2022-10-13T07:32:38;18.92;;;13.38;;
37069;SDS011;22984;48.862;9.320;2022-10-13T07:35:06;20.73;;;12.65;;
37069;SDS011;22984;48.862;9.320;2022-10-13T07:37:32;19.30;;;11.65;;
37069;SDS011;22984;48.862;9.320;2022-10-13T07:39:58;21.07;;;12.47;;
37069;SDS011;22984;48.862;9.320;2022-10-13T07:42:24;19.42;;;11.95;;
37069;SDS011;22984;48.862;9.320;2022-10-13T07:44:51;23.85;;;11.93;;
37069;SDS011;22984;48.862;9.320;2022-10-13T07:47:17;20.95;;;10.85;;
37069;SDS011;22984;48.862;9.320;2022-10-13T07:49:43;16.05;;;11.05;;
37069;SDS011;22984;48.862;9.320;2022-10-13T07:52:09;20.57;;;10.90;;
37069;SDS011;22984;48.862;9.320;2022-10-13T07:54:35;22.58;;;10.50;;
37069;SDS011;22984;48.862;9.320;2022-10-13T07:57:01;15.52;;;10.05;;
37069;SDS011;22984;48.862;9.320;2022-10-13T07:59:27;17.95;;;10.48;;
37069;SDS011;22984;48.862;9.320;2022-10-13T08:01:53;15.50;;;10.15;;
37069;SDS011;22984;48.862;9.320;2022-10-13T08:04:20;19.05;;;10.77;;
37069;SDS011;22984;48.862;9.320;2022-10-13T08:06:46;19.52;;;11.25;;
37069;SDS011;22984;48.862;9.320;2022-10-13T08:09:12;20.98;;;11.50;;
37069;SDS011;22984;48.862;9.320;2022-10-13T08:11:38;24.40;;;10.53;;
37069;SDS011;22984;48.862;9.320;2022-10-13T08:14:04;20.50;;;10.60;;
37069;SDS011;22984;48.862;9.320;2022-10-13T08:16:30;23.13;;;9.15;;
37069;SDS011;22984;48.862;9.320;2022-10-13T08:18:57;20.00;;;9.82;;
37069;SDS011;22984;48.862;9.320;2022-10-13T08:21:23;11.93;;;8.90;;
37069;SDS011;22984;48.862;9.320;2022-10-13T08:23:49;23.23;;;10.25;;
37069;SDS011;22984;48.862;9.320;2022-10-13T08:26:23;16.83;;;9.65;;
37069;SDS011;22984;48.862;9.320;2022-10-13T08:28:49;21.77;;;10.48;;
37069;SDS011;22984;48.862;9.320;2022-10-13T08:31:16;20.65;;;10.02;;
37069;SDS011;22984;48.862;9.320;2022-10-13T08:33:45;18.02;;;9.38;;
37069;SDS011;22984;48.862;9.320;2022-10-13T08:36:15;11.45;;;8.40;;
37069;SDS011;22984;48.862;9.320;2022-10-13T08:38:41;17.20;;;9.43;;
37069;SDS011;22984;48.862;9.320;2022-10-13T08:41:18;11.50;;;8.02;;
37069;SDS011;22984;48.862;9.320;2022-10-13T08:43:48;17.63;;;8.70;;
37069;SDS011;22984;48.862;9.320;2022-10-13T08:46:21;10.50;;;8.18;;
37069;SDS011;22984;48.862;9.320;2022-10-13T08:48:50;11.18;;;7.75;;
37069;SDS011;22984;48.862;9.320;2022-10-13T08:51:16;14.52;;;7.72;;
37069;SDS011;22984;48.862;9.320;2022-10-13T08:53:43;11.30;;;7.40;;
37069;SDS011;22984;48.862;9.320;2022-10-13T08:56:14;14.03;;;7.97;;
37069;SDS011;22984;48.862;9.320;2022-10-13T08:58:43;11.83;;;7.97;;
37069;SDS011;22984;48.862;9.320;2022-10-13T09:03:55;20.48;;;9.13;;
37069;SDS011;22984;48.862;9.320;2022-10-13T09:06:25;16.17;;;8.20;;
37069;SDS011;22984;48.862;9.320;2022-10-13T09:09:11;13.70;;;8.15;;
37069;SDS011;22984;48.862;9.320;2022-10-13T09:11:42;13.82;;;7.78;;
37069;SDS011;22984;48.862;9.320;2022-10-13T09:14:18;15.77;;;7.57;;
37069;SDS011;22984;48.862;9.320;2022-10-13T09:16:46;14.07;;;7.07;;
37069;SDS011;22984;48.862;9.320;2022-10-13T09:21:52;12.40;;;7.10;;
37069;SDS011;22984;48.862;9.320;2022-10-13T09:24:20;12.73;;;7.78;;
37069;SDS011;22984;48.862;9.320;2022-10-13T09:26:47;13.05;;;7.10;;
37069;SDS011;22984;48.862;9.320;2022-10-13T09:31:43;12.52;;;6.95;;
37069;SDS011;22984;48.862;9.320;2022-10-13T09:36:54;8.45;;;6.68;;
37069;SDS011;22984;48.862;9.320;2022-10-13T09:39:20;10.25;;;7.22;;
37069;SDS011;22984;48.862;9.320;2022-10-13T09:41:46;11.43;;;7.13;;
37069;SDS011;22984;48.862;9.320;2022-10-13T09:44:13;12.93;;;7.40;;
37069;SDS011;22984;48.862;9.320;2022-10-13T09:46:51;12.07;;;7.40;;
37069;SDS011;22984;48.862;9.320;2022-10-13T09:51:50;10.25;;;6.57;;
37069;SDS011;22984;48.862;9.320;2022-10-13T09:54:26;14.65;;;7.00;;
37069;SDS011;22984;48.862;9.320;2022-10-13T09:56:58;12.32;;;6.97;;
37069;SDS011;22984;48.862;9.320;2022-10-13T09:59:30;12.40;;;7.18;;
37069;SDS011;22984;48.862;9.320;2022-10-13T10:01:59;9.77;;;7.13;;
37069;SDS011;22984;48.862;9.320;2022-10-13T10:04:32;15.40;;;7.13;;
37069;SDS011;22984;48.862;9.320;2022-10-13T10:07:00;10.27;;;6.45;;
37069;SDS011;22984;48.862;9.320;2022-10-13T10:09:40;13.30;;;6.78;;
37069;SDS011;22984;48.862;9.320;2022-10-13T10:12:12;15.55;;;7.10;;
37069;SDS011;22984;48.862;9.320;2022-10-13T10:14:40;10.13;;;7.03;;
37069;SDS011;22984;48.862;9.320;2022-10-13T10:17:11;13.85;;;7.97;;
37069;SDS011;22984;48.862;9.320;2022-10-13T10:22:09;17.95;;;8.63;;
37069;SDS011;22984;48.862;9.320;2022-10-13T10:30:14;17.85;;;8.32;;
37069;SDS011;22984;48.862;9.320;2022-10-13T10:32:42;13.75;;;6.35;;
37069;SDS011;22984;48.862;9.320;2022-10-13T10:35:12;23.88;;;10.60;;
37069;SDS011;22984;48.862;9.320;2022-10-13T10:40:23;16.50;;;8.10;;
37069;SDS011;22984;48.862;9.320;2022-10-13T10:43:00;15.18;;;7.40;;
37069;SDS011;22984;48.862;9.320;2022-10-13T10:45:35;18.05;;;7.95;;
37069;SDS011;22984;48.862;9.320;2022-10-13T10:48:06;10.45;;;7.05;;
37069;SDS011;22984;48.862;9.320;2022-10-13T10:50:37;10.18;;;6.70;;
37069;SDS011;22984;48.862;9.320;2022-10-13T10:58:37;14.00;;;6.53;;
37069;SDS011;22984;48.862;9.320;2022-10-13T11:03:42;11.45;;;7.00;;
37069;SDS011;22984;48.862;9.320;2022-10-13T11:13:52;13.23;;;6.07;;
37069;SDS011;22984;48.862;9.320;2022-10-13T11:16:23;10.13;;;6.40;;
37069;SDS011;22984;48.862;9.320;2022-10-13T11:21:23;20.35;;;7.00;;
37069;SDS011;22984;48.862;9.320;2022-10-13T11:23:50;16.07;;;7.00;;
37069;SDS011;22984;48.862;9.320;2022-10-13T11:28:46;10.38;;;6.30;;
37069;SDS011;22984;48.862;9.320;2022-10-13T11:38:49;10.30;;;6.07;;
37069;SDS011;22984;48.862;9.320;2022-10-13T11:41:22;13.65;;;6.85;;
37069;SDS011;22984;48.862;9.320;2022-10-13T11:46:24;10.00;;;6.15;;
37069;SDS011;22984;48.862;9.320;2022-10-13T11:48:55;9.55;;;6.45;;
37069;SDS011;22984;48.862;9.320;2022-10-13T11:51:30;11.37;;;5.90;;
37069;SDS011;22984;48.862;9.320;2022-10-13T11:57:02;9.87;;;6.10;;
37069;SDS011;22984;48.862;9.320;2022-10-13T12:01:51;10.60;;;6.25;;
37069;SDS011;22984;48.862;9.320;2022-10-13T12:04:19;14.13;;;6.20;;
37069;SDS011;22984;48.862;9.320;2022-10-13T12:06:47;12.85;;;5.85;;
37069;SDS011;22984;48.862;9.320;2022-10-13T12:09:18;13.30;;;5.88;;
37069;SDS011;22984;48.862;9.320;2022-10-13T12:11:45;8.35;;;5.40;;
37069;SDS011;22984;48.862;9.320;2022-10-13T12:14:19;11.63;;;5.82;;
37069;SDS011;22984;48.862;9.320;2022-10-13T12:16:52;8.07;;;5.13;;
37069;SDS011;22984;48.862;9.320;2022-10-13T12:19:19;10.10;;;5.70;;
37069;SDS011;22984;48.862;9.320;2022-10-13T12:21:47;10.02;;;5.15;;
37069;SDS011;22984;48.862;9.320;2022-10-13T12:24:14;18.48;;;5.65;;
37069;SDS011;22984;48.862;9.320;2022-10-13T12:26:40;9.15;;;5.20;;
37069;SDS011;22984;48.862;9.320;2022-10-13T12:29:12;10.02;;;5.57;;
37069;SDS011;22984;48.862;9.320;2022-10-13T12:34:22;12.25;;;5.65;;
37069;SDS011;22984;48.862;9.320;2022-10-13T12:36:52;11.13;;;5.05;;
37069;SDS011;22984;48.862;9.320;2022-10-13T12:39:19;11.25;;;5.38;;
37069;SDS011;22984;48.862;9.320;2022-10-13T12:41:46;13.90;;;5.68;;
37069;SDS011;22984;48.862;9.320;2022-10-13T12:44:13;12.05;;;5.10;;
37069;SDS011;22984;48.862;9.320;2022-10-13T12:46:41;14.88;;;4.65;;
37069;SDS011;22984;48.862;9.320;2022-10-13T12:49:14;10.77;;;4.80;;
37069;SDS011;22984;48.862;9.320;2022-10-13T12:51:41;10.05;;;4.40;;
37069;SDS011;22984;48.862;9.320;2022-10-13T12:54:08;9.27;;;4.65;;
37069;SDS011;22984;48.862;9.320;2022-10-13T12:56:42;8.40;;;4.85;;
37069;SDS011;22984;48.862;9.320;2022-10-13T12:59:13;13.93;;;5.30;;
37069;SDS011;22984;48.862;9.320;2022-10-13T13:01:40;7.13;;;4.22;;
37069;SDS011;22984;48.862;9.320;2022-10-13T13:06:55;13.43;;;4.50;;
37069;SDS011;22984;48.862;9.320;2022-10-13T13:11:47;9.00;;;4.30;;
37069;SDS011;22984;48.862;9.320;2022-10-13T13:17:03;10.73;;;3.47;;
37069;SDS011;22984;48.862;9.320;2022-10-13T13:19:30;11.65;;;4.47;;
37069;SDS011;22984;48.862;9.320;2022-10-13T13:21:56;10.30;;;4.30;;
37069;SDS011;22984;48.862;9.320;2022-10-13T13:24:22;10.63;;;4.30;;
37069;SDS011;22984;48.862;9.320;2022-10-13T13:26:48;11.15;;;4.10;;
37069;SDS011;22984;48.862;9.320;2022-10-13T13:29:15;8.50;;;3.83;;
37069;SDS011;22984;48.862;9.320;2022-10-13T13:31:41;6.40;;;3.80;;
37069;SDS011;22984;48.862;9.320;2022-10-13T13:34:07;9.80;;;4.40;;
37069;SDS011;22984;48.862;9.320;2022-10-13T13:36:33;10.38;;;4.43;;
37069;SDS011;22984;48.862;9.320;2022-10-13T13:38:59;10.73;;;4.22;;
37069;SDS011;22984;48.862;9.320;2022-10-13T13:41:25;9.15;;;3.83;;
37069;SDS011;22984;48.862;9.320;2022-10-13T13:43:54;12.18;;;4.20;;
37069;SDS011;22984;48.862;9.320;2022-10-13T13:46:22;13.68;;;4.38;;
37069;SDS011;22984;48.862;9.320;2022-10-13T13:48:48;14.27;;;4.27;;
37069;SDS011;22984;48.862;9.320;2022-10-13T13:51:15;6.73;;;3.97;;
37069;SDS011;22984;48.862;9.320;2022-10-13T13:53:41;11.65;;;4.18;;
37069;SDS011;22984;48.862;9.320;2022-10-13T13:56:14;21.23;;;4.75;;
37069;SDS011;22984;48.862;9.320;2022-10-13T13:58:40;4.72;;;3.72;;
37069;SDS011;22984;48.862;9.320;2022-10-13T14:01:06;8.93;;;4.00;;
37069;SDS011;22984;48.862;9.320;2022-10-13T14:03:32;7.57;;;4.03;;
37069;SDS011;22984;48.862;9.320;2022-10-13T14:05:58;8.55;;;4.15;;
37069;SDS011;22984;48.862;9.320;2022-10-13T14:08:24;11.13;;;4.25;;
37069;SDS011;22984;48.862;9.320;2022-10-13T14:10:50;7.68;;;4.38;;
37069;SDS011;22984;48.862;9.320;2022-10-13T14:13:16;10.77;;;4.05;;
37069;SDS011;22984;48.862;9.320;2022-10-13T14:15:43;8.27;;;4.38;;
37069;SDS011;22984;48.862;9.320;2022-10-13T14:18:09;9.63;;;4.82;;
37069;SDS011;22984;48.862;9.320;2022-10-13T14:20:38;9.63;;;4.65;;
37069;SDS011;22984;48.862;9.320;2022-10-13T14:23:05;8.07;;;4.40;;
37069;SDS011;22984;48.862;9.320;2022-10-13T14:25:32;10.75;;;4.45;;
37069;SDS011;22984;48.862;9.320;2022-10-13T14:27:58;11.20;;;4.67;;
37069;SDS011;22984;48.862;9.320;2022-10-13T14:30:24;18.90;;;5.60;;
37069;SDS011;22984;48.862;9.320;2022-10-13T14:32:50;12.48;;;5.38;;
37069;SDS011;22984;48.862;9.320;2022-10-13T14:35:16;9.70;;;4.57;;
37069;SDS011;22984;48.862;9.320;2022-10-13T14:37:42;16.23;;;5.38;;
37069;SDS011;22984;48.862;9.320;2022-10-13T14:40:08;10.30;;;5.15;;
37069;SDS011;22984;48.862;9.320;2022-10-13T14:42:34;16.27;;;5.93;;
37069;SDS011;22984;48.862;9.320;2022-10-13T14:45:00;13.37;;;5.60;;
37069;SDS011;22984;48.862;9.320;2022-10-13T14:47:26;9.73;;;5.32;;
37069;SDS011;22984;48.862;9.320;2022-10-13T14:49:53;12.18;;;4.97;;
37069;SDS011;22984;48.862;9.320;2022-10-13T14:52:19;15.50;;;5.90;;
37069;SDS011;22984;48.862;9.320;2022-10-13T14:54:45;10.32;;;6.03;;
37069;SDS011;22984;48.862;9.320;2022-10-13T14:57:11;18.25;;;5.88;;
37069;SDS011;22984;48.862;9.320;2022-10-13T14:59:39;8.63;;;4.83;;
37069;SDS011;22984;48.862;9.320;2022-10-13T15:02:05;11.32;;;5.03;;
37069;SDS011;22984;48.862;9.320;2022-10-13T15:04:31;13.43;;;5.80;;
37069;SDS011;22984;48.862;9.320;2022-10-13T15:06:58;14.80;;;4.57;;
37069;SDS011;22984;48.862;9.320;2022-10-13T15:09:24;25.77;;;7.03;;
37069;SDS011;22984;48.862;9.320;2022-10-13T15:11:50;22.65;;;8.63;;
37069;SDS011;22984;48.862;9.320;2022-10-13T15:14:16;16.08;;;7.80;;
37069;SDS011;22984;48.862;9.320;2022-10-13T15:16:42;14.02;;;6.97;;
37069;SDS011;22984;48.862;9.320;2022-10-13T15:19:08;15.45;;;7.60;;
37069;SDS011;22984;48.862;9.320;2022-10-13T15:21:34;18.23;;;8.45;;
37069;SDS011;22984;48.862;9.320;2022-10-13T15:24:00;10.73;;;7.43;;
37069;SDS011;22984;48.862;9.320;2022-10-13T15:26:26;18.73;;;8.75;;
37069;SDS011;22984;48.862;9.320;2022-10-13T15:28:52;12.85;;;7.88;;
37069;SDS011;22984;48.862;9.320;2022-10-13T15:31:18;12.43;;;7.03;;
37069;SDS011;22984;48.862;9.320;2022-10-13T15:33:45;17.25;;;7.30;;
37069;SDS011;22984;48.862;9.320;2022-10-13T15:36:12;15.25;;;7.38;;
37069;SDS011;22984;48.862;9.320;2022-10-13T15:38:38;13.80;;;8.05;;
37069;SDS011;22984;48.862;9.320;2022-10-13T15:41:04;15.07;;;8.85;;
37069;SDS011;22984;48.862;9.320;2022-10-13T15:43:31;16.45;;;10.27;;
37069;SDS011;22984;48.862;9.320;2022-10-13T15:46:02;13.65;;;9.57;;
37069;SDS011;22984;48.862;9.320;2022-10-13T15:48:28;15.35;;;9.00;;
37069;SDS011;22984;48.862;9.320;2022-10-13T15:50:54;15.68;;;10.95;;
37069;SDS011;22984;48.862;9.320;2022-10-13T15:53:21;17.30;;;10.50;;
37069;SDS011;22984;48.862;9.320;2022-10-13T15:55:47;19.00;;;9.53;;
37069;SDS011;22984;48.862;9.320;2022-10-13T15:58:13;24.15;;;9.20;;
37069;SDS011;22984;48.862;9.320;2022-10-13T16:00:40;16.40;;;8.90;;
37069;SDS011;22984;48.862;9.320;2022-10-13T16:03:06;19.48;;;10.43;;